createdAt,value
2019-04-03T00:00:14.682Z,61.65
2019-04-03T00:02:47.418Z,61.56
2019-04-03T00:05:18.273Z,61.95
2019-04-03T00:07:49.059Z,62.01
2019-04-03T00:10:19.866Z,61.78
2019-04-03T00:12:52.846Z,61.60
2019-04-03T00:15:23.487Z,61.51
2019-04-03T00:17:54.278Z,61.97
2019-04-03T00:20:25.170Z,62.39
2019-04-03T00:22:55.985Z,62.03
2019-04-03T00:25:26.763Z,62.38
2019-04-03T00:27:57.569Z,62.33
2019-04-03T00:30:28.253Z,62.39
2019-04-03T00:32:59.121Z,62.31
2019-04-03T00:35:29.838Z,62.43
2019-04-03T00:38:01.110Z,62.38
2019-04-03T00:40:31.824Z,62.01
2019-04-03T00:43:02.482Z,61.98
2019-04-03T00:45:33.890Z,61.80
2019-04-03T00:48:05.092Z,61.92
2019-04-03T00:50:35.934Z,62.12
2019-04-03T00:53:06.676Z,61.94
2019-04-03T00:55:37.573Z,62.29
2019-04-03T00:58:44.613Z,62.13
2019-04-03T01:01:15.698Z,61.54
2019-04-03T01:03:46.517Z,62.29
2019-04-03T01:06:17.497Z,62.21
2019-04-03T01:08:48.674Z,62.32
2019-04-03T01:11:19.407Z,62.44
2019-04-03T01:13:50.051Z,62.76
2019-04-03T01:16:22.025Z,62.76
2019-04-03T01:18:53.200Z,62.55
2019-04-03T01:21:24.177Z,62.74
2019-04-03T01:23:55.149Z,62.40
2019-04-03T01:26:26.203Z,62.81
2019-04-03T01:28:57.096Z,63.04
2019-04-03T01:31:28.179Z,63.45
2019-04-03T01:33:59.115Z,64.05
2019-04-03T01:36:29.909Z,63.69
2019-04-03T01:39:00.785Z,63.71
2019-04-03T01:41:33.193Z,64.26
2019-04-03T01:44:04.260Z,65.06
2019-04-03T01:46:35.033Z,64.62
2019-04-03T01:49:05.873Z,64.42
2019-04-03T01:51:36.711Z,64.58
2019-04-03T01:54:07.574Z,64.43
2019-04-03T01:56:38.278Z,64.88
2019-04-03T01:59:09.049Z,65.16
2019-04-03T02:01:40.305Z,65.51
2019-04-03T02:04:13.326Z,64.91
2019-04-03T02:06:44.387Z,64.67
2019-04-03T02:09:16.048Z,64.80
2019-04-03T02:11:47.618Z,65.19
2019-04-03T02:14:21.691Z,65.03
2019-04-03T02:16:53.453Z,65.50
2019-04-03T02:19:26.289Z,65.95
2019-04-03T02:21:58.523Z,65.73
2019-04-03T02:24:31.822Z,65.89
2019-04-03T02:27:03.338Z,65.92
2019-04-03T02:29:34.170Z,65.40
2019-04-03T02:32:05.144Z,65.60
2019-04-03T02:34:36.656Z,65.58
2019-04-03T02:37:07.725Z,65.81
2019-04-03T02:39:38.989Z,65.99
2019-04-03T02:42:10.485Z,65.85
2019-04-03T02:44:42.442Z,66.32
2019-04-03T02:47:13.081Z,66.20
2019-04-03T02:49:44.078Z,66.12
2019-04-03T02:52:17.035Z,65.56
2019-04-03T02:54:49.194Z,65.86
2019-04-03T02:57:21.058Z,65.61
2019-04-03T02:59:52.426Z,65.83
2019-04-03T03:02:23.003Z,66.23
2019-04-03T03:04:55.612Z,66.25
2019-04-03T03:07:26.675Z,66.71
2019-04-03T03:09:58.062Z,66.52
2019-04-03T03:12:28.879Z,66.57
2019-04-03T03:15:01.407Z,66.51
2019-04-03T03:17:33.415Z,66.83
2019-04-03T03:20:07.853Z,66.60
2019-04-03T03:22:40.592Z,66.37
2019-04-03T03:25:11.459Z,66.08
2019-04-03T03:27:42.726Z,65.61
2019-04-03T03:30:36.140Z,65.45
2019-04-03T03:32:50.891Z,65.06
2019-04-03T03:35:29.496Z,65.37
2019-04-03T03:37:54.376Z,65.25
2019-04-03T03:40:28.264Z,65.41
2019-04-03T03:43:03.594Z,65.36
2019-04-03T03:45:33.795Z,65.10
2019-04-03T03:48:08.203Z,65.01
2019-04-03T03:50:38.286Z,65.60
2019-04-03T03:53:11.959Z,65.12
2019-04-03T03:55:43.549Z,65.04
2019-04-03T03:58:14.592Z,65.35
2019-04-03T04:00:51.488Z,66.17
2019-04-03T04:03:18.709Z,65.62
2019-04-03T04:05:53.870Z,66.35
2019-04-03T04:08:22.117Z,66.46
2019-04-03T04:10:58.105Z,66.44
2019-04-03T04:13:27.018Z,66.05
2019-04-03T04:16:02.727Z,65.51
2019-04-03T04:18:31.713Z,65.94
2019-04-03T04:21:03.960Z,65.82
2019-04-03T04:23:35.818Z,66.19
2019-04-03T04:26:07.014Z,65.98
2019-04-03T04:28:40.564Z,66.23
2019-04-03T04:31:12.989Z,65.89
2019-04-03T04:33:45.771Z,65.70
2019-04-03T04:36:17.606Z,65.49
2019-04-03T04:38:50.798Z,65.64
2019-04-03T04:41:21.513Z,65.34
2019-04-03T04:43:52.430Z,64.84
2019-04-03T04:46:23.137Z,64.77
2019-04-03T04:48:59.587Z,65.04
2019-04-03T04:51:30.759Z,64.62
2019-04-03T04:54:03.647Z,64.44
2019-04-03T04:56:37.475Z,64.12
2019-04-03T04:59:08.090Z,64.06
2019-04-03T05:01:40.039Z,64.03
2019-04-03T05:04:11.243Z,63.83
2019-04-03T05:06:43.313Z,63.56
2019-04-03T05:09:15.363Z,63.55
2019-04-03T05:11:47.573Z,63.62
2019-04-03T05:14:19.005Z,63.21
2019-04-03T05:16:49.462Z,63.52
2019-04-03T05:19:20.509Z,63.20
2019-04-03T05:21:53.198Z,63.08
2019-04-03T05:24:24.566Z,63.16
2019-04-03T05:26:55.968Z,63.04
2019-04-03T05:29:27.539Z,63.05
2019-04-03T05:32:00.088Z,62.81
2019-04-03T05:34:31.673Z,62.72
2019-04-03T05:37:03.003Z,62.98
2019-04-03T05:39:34.777Z,62.62
2019-04-03T05:42:05.765Z,62.61
2019-04-03T05:44:36.612Z,62.53
2019-04-03T05:47:08.467Z,62.43
2019-04-03T05:49:39.155Z,62.51
2019-04-03T05:52:10.219Z,62.37
2019-04-03T05:54:44.030Z,62.12
2019-04-03T05:57:14.503Z,61.98
2019-04-03T05:59:58.249Z,61.79
2019-04-03T06:02:20.413Z,61.92
2019-04-03T06:04:51.240Z,62.23
2019-04-03T06:07:22.299Z,61.54
2019-04-03T06:09:53.837Z,61.16
2019-04-03T06:12:25.793Z,60.75
2019-04-03T06:14:56.569Z,60.66
2019-04-03T06:17:27.375Z,60.84
2019-04-03T06:19:58.254Z,60.66
2019-04-03T06:22:29.278Z,60.68
2019-04-03T06:25:00.112Z,61.02
2019-04-03T06:27:31.080Z,60.88
2019-04-03T06:30:02.130Z,60.95
2019-04-03T06:32:32.654Z,60.83
2019-04-03T06:35:03.396Z,60.42
2019-04-03T06:37:34.427Z,60.42
2019-04-03T06:40:05.887Z,60.47
2019-04-03T06:42:37.030Z,60.03
2019-04-03T06:45:08.075Z,59.83
2019-04-03T06:47:39.005Z,59.67
2019-04-03T06:50:12.227Z,59.75
2019-04-03T06:52:42.252Z,59.46
2019-04-03T06:55:13.024Z,59.33
2019-04-03T06:57:46.296Z,59.32
2019-04-03T07:00:17.384Z,59.47
2019-04-03T07:02:48.287Z,59.31
2019-04-03T07:05:19.105Z,58.90
2019-04-03T07:07:49.932Z,58.39
2019-04-03T07:10:25.564Z,58.60
2019-04-03T07:12:53.621Z,58.49
2019-04-03T07:15:25.250Z,58.36
2019-04-03T07:17:55.973Z,58.55
2019-04-03T07:20:26.866Z,58.39
2019-04-03T07:22:59.057Z,58.20
2019-04-03T07:25:33.941Z,58.13
2019-04-03T07:28:08.596Z,58.37
2019-04-03T07:30:38.087Z,57.34
2019-04-03T07:33:08.820Z,57.34
2019-04-03T07:35:40.544Z,56.87
2019-04-03T07:38:12.490Z,56.57
2019-04-03T07:40:43.301Z,56.21
2019-04-03T07:43:14.263Z,55.69
2019-04-03T07:45:47.085Z,55.68
2019-04-03T07:48:18.380Z,54.97
2019-04-03T07:50:49.135Z,55.25
2019-04-03T07:53:20.469Z,54.19
2019-04-03T07:55:55.093Z,54.00
2019-04-03T07:58:25.715Z,53.24
2019-04-03T08:00:56.615Z,52.77
2019-04-03T08:03:27.824Z,53.66
2019-04-03T08:05:59.166Z,52.48
2019-04-03T08:08:30.648Z,52.34
2019-04-03T08:11:02.525Z,51.55
2019-04-03T08:13:33.360Z,51.42
2019-04-03T08:16:04.209Z,51.21
2019-04-03T08:18:35.013Z,51.36
2019-04-03T08:21:06.092Z,50.78
2019-04-03T08:23:37.601Z,51.14
2019-04-03T08:26:11.402Z,50.62
2019-04-03T08:28:41.236Z,50.35
2019-04-03T08:31:12.492Z,50.76
2019-04-03T08:33:43.205Z,50.60
2019-04-03T08:36:24.664Z,50.79
2019-04-03T08:38:46.494Z,50.53
2019-04-03T08:41:17.113Z,50.69
2019-04-03T08:43:48.377Z,50.48
2019-04-03T08:46:19.771Z,50.08
2019-04-03T08:48:50.749Z,50.26
2019-04-03T08:51:21.479Z,50.39
2019-04-03T08:53:54.053Z,50.85
2019-04-03T08:56:25.015Z,50.71
2019-04-03T08:58:57.377Z,51.29
2019-04-03T09:01:29.142Z,51.22
2019-04-03T09:04:00.323Z,51.62
2019-04-03T09:06:31.445Z,51.40
2019-04-03T09:09:02.580Z,51.15
2019-04-03T09:11:36.308Z,50.60
2019-04-03T09:14:07.944Z,51.43
2019-04-03T09:16:38.977Z,51.08
2019-04-03T09:19:10.827Z,50.42
2019-04-03T09:21:42.151Z,51.41
2019-04-03T09:24:14.743Z,51.01
2019-04-03T09:26:45.506Z,51.23
2019-04-03T09:29:16.157Z,51.01
2019-04-03T09:31:47.502Z,50.88
2019-04-03T09:34:20.349Z,50.87
2019-04-03T09:36:50.969Z,50.60
2019-04-03T09:39:22.160Z,50.74
2019-04-03T09:41:52.975Z,50.10
2019-04-03T09:44:25.477Z,49.92
2019-04-03T09:46:56.924Z,50.39
2019-04-03T09:49:27.832Z,49.85
2019-04-03T09:51:58.717Z,49.18
2019-04-03T09:54:29.671Z,49.30
2019-04-03T09:57:04.674Z,49.31
2019-04-03T09:59:33.130Z,49.42
2019-04-03T10:02:04.525Z,49.15
2019-04-03T10:04:35.442Z,48.89
2019-04-03T10:07:06.580Z,48.49
2019-04-03T10:09:38.967Z,48.92
2019-04-03T10:12:10.373Z,48.69
2019-04-03T10:14:42.121Z,48.43
2019-04-03T10:17:12.294Z,48.11
2019-04-03T10:19:44.770Z,48.42
2019-04-03T10:22:15.376Z,48.10
2019-04-03T10:24:46.073Z,48.52
2019-04-03T10:27:16.882Z,48.09
2019-04-03T10:29:49.726Z,48.14
2019-04-03T10:32:20.278Z,48.19
2019-04-03T10:34:51.183Z,47.97
2019-04-03T10:37:22.227Z,47.61
2019-04-03T10:39:53.544Z,47.37
2019-04-03T10:42:26.928Z,46.93
2019-04-03T10:44:57.796Z,46.42
2019-04-03T10:47:40.382Z,46.76
2019-04-03T10:50:02.266Z,46.97
2019-04-03T10:52:33.859Z,46.79
2019-04-03T10:55:05.371Z,46.03
2019-04-03T10:57:36.313Z,46.50
2019-04-03T11:00:10.197Z,46.56
2019-04-03T11:02:41.010Z,46.29
2019-04-03T11:05:12.367Z,45.83
2019-04-03T11:07:43.174Z,45.50
2019-04-03T11:10:14.666Z,45.81
2019-04-03T11:12:45.433Z,46.14
2019-04-03T11:15:16.293Z,45.28
2019-04-03T11:17:49.362Z,46.22
2019-04-03T11:20:20.046Z,45.91
2019-04-03T11:23:04.065Z,45.87
2019-04-03T11:25:23.716Z,45.52
2019-04-03T11:27:55.055Z,45.64
2019-04-03T11:30:26.560Z,45.54
2019-04-03T11:32:57.386Z,44.96
2019-04-03T11:35:28.156Z,45.26
2019-04-03T11:38:11.154Z,45.38
2019-04-03T11:40:31.265Z,45.17
2019-04-03T11:43:02.040Z,44.76
2019-04-03T11:45:32.829Z,44.69
2019-04-03T11:48:03.743Z,44.96
2019-04-03T11:50:34.685Z,44.23
2019-04-03T11:53:07.657Z,43.64
2019-04-03T11:55:38.286Z,44.18
2019-04-03T11:58:11.688Z,43.86
2019-04-03T12:00:45.522Z,43.38
2019-04-03T12:03:16.560Z,43.70
2019-04-03T12:05:48.256Z,43.24
2019-04-03T12:08:19.635Z,43.50
2019-04-03T12:10:50.758Z,44.05
2019-04-03T12:13:22.134Z,43.55
2019-04-03T12:15:53.954Z,43.50
2019-04-03T12:18:27.523Z,43.52
2019-04-03T12:20:58.707Z,43.07
2019-04-03T12:23:29.632Z,43.43
2019-04-03T12:26:00.267Z,43.10
2019-04-03T12:28:31.094Z,43.89
2019-04-03T12:31:02.456Z,44.06
2019-04-03T12:33:33.559Z,44.74
2019-04-03T12:36:06.512Z,44.28
2019-04-03T12:38:37.071Z,43.32
2019-04-03T12:41:10.167Z,43.66
2019-04-03T12:43:41.086Z,44.27
2019-04-03T12:46:11.913Z,44.26
2019-04-03T12:48:43.322Z,43.96
2019-04-03T12:51:14.378Z,44.60
2019-04-03T12:53:47.851Z,44.24
2019-04-03T12:56:17.700Z,44.34
2019-04-03T12:58:48.545Z,44.20
2019-04-03T13:01:19.839Z,44.75
2019-04-03T13:03:51.495Z,44.05
2019-04-03T13:06:22.321Z,44.16
2019-04-03T13:08:53.031Z,43.96
2019-04-03T13:11:23.716Z,44.28
2019-04-03T13:13:54.699Z,44.33
2019-04-03T13:16:29.433Z,44.45
2019-04-03T13:19:04.976Z,44.96
2019-04-03T13:21:36.132Z,44.77
2019-04-03T13:24:10.890Z,45.19
2019-04-03T13:26:41.839Z,45.21
2019-04-03T13:29:15.484Z,44.95
2019-04-03T13:31:48.556Z,45.02
2019-04-03T13:34:19.873Z,45.45
2019-04-03T13:37:12.390Z,45.86
2019-04-03T13:39:45.151Z,45.70
2019-04-03T13:42:18.100Z,45.35
2019-04-03T13:44:48.949Z,45.60
2019-04-03T13:47:20.526Z,45.84
2019-04-03T13:49:52.107Z,45.46
2019-04-03T13:52:23.483Z,45.55
2019-04-03T13:54:55.333Z,45.68
2019-04-03T13:57:27.576Z,45.57
2019-04-03T14:00:01.800Z,45.23
2019-04-03T14:02:32.166Z,45.27
2019-04-03T14:05:03.738Z,45.44
2019-04-03T14:07:35.266Z,45.09
2019-04-03T14:10:07.650Z,44.50
2019-04-03T14:12:43.203Z,44.63
2019-04-03T14:15:12.317Z,45.59
2019-04-03T14:17:54.272Z,45.83
2019-04-03T14:20:17.649Z,45.48
2019-04-03T14:22:48.872Z,45.15
2019-04-03T14:25:23.438Z,45.00
2019-04-03T14:27:55.976Z,45.09
2019-04-03T14:30:26.962Z,45.37
2019-04-03T14:32:57.622Z,45.20
2019-04-03T14:35:50.426Z,45.25
2019-04-03T14:38:00.429Z,45.61
2019-04-03T14:40:31.377Z,45.27
2019-04-03T14:43:02.049Z,45.05
2019-04-03T14:45:33.748Z,45.10
2019-04-03T14:48:04.396Z,45.00
2019-04-03T14:50:37.700Z,45.17
2019-04-03T14:53:11.871Z,44.88
2019-04-03T14:55:49.299Z,44.97
2019-04-03T14:58:15.313Z,44.74
2019-04-03T15:00:48.515Z,45.00
2019-04-03T15:03:17.444Z,45.20
2019-04-03T15:05:48.062Z,44.99
2019-04-03T15:08:18.349Z,45.09
2019-04-03T15:10:50.259Z,45.01
2019-04-03T15:13:20.457Z,45.50
2019-04-03T15:15:51.047Z,45.76
2019-04-03T15:18:21.667Z,45.81
2019-04-03T15:20:51.942Z,45.85
2019-04-03T15:23:23.068Z,46.15
2019-04-03T15:25:53.520Z,46.18
2019-04-03T15:28:24.118Z,47.41
2019-04-03T15:30:56.365Z,47.79
2019-04-03T15:33:27.501Z,48.26
2019-04-03T15:35:58.936Z,48.23
2019-04-03T15:38:30.069Z,48.12
2019-04-03T15:41:00.631Z,48.49
2019-04-03T15:43:30.874Z,48.73
2019-04-03T15:46:01.168Z,48.96
2019-04-03T15:48:31.426Z,49.08
2019-04-03T15:51:05.637Z,49.04
2019-04-03T15:53:34.565Z,49.12
2019-04-03T15:56:05.747Z,49.07
2019-04-03T15:58:36.332Z,49.38
2019-04-03T16:01:08.476Z,49.83
2019-04-03T16:03:38.738Z,49.75
2019-04-03T16:06:08.938Z,50.01
2019-04-03T16:08:40.368Z,50.21
2019-04-03T16:11:10.674Z,50.72
2019-04-03T16:13:40.838Z,50.42
2019-04-03T16:16:11.487Z,50.61
2019-04-03T16:18:42.136Z,50.57
2019-04-03T16:21:12.844Z,51.17
2019-04-03T16:23:43.154Z,51.65
2019-04-03T16:26:13.422Z,52.08
2019-04-03T16:28:44.184Z,52.55
2019-04-03T16:31:14.915Z,52.82
2019-04-03T16:33:45.534Z,53.14
2019-04-03T16:36:17.143Z,52.91
2019-04-03T16:38:48.601Z,53.51
2019-04-03T16:41:18.972Z,53.37
2019-04-03T16:43:49.402Z,53.44
2019-04-03T16:46:19.636Z,53.61
2019-04-03T16:48:51.074Z,53.83
2019-04-03T16:51:22.437Z,53.80
2019-04-03T16:53:52.877Z,54.28
2019-04-03T16:56:23.241Z,54.07
2019-04-03T16:58:53.517Z,54.48
2019-04-03T17:01:23.739Z,54.47
2019-04-03T17:03:53.964Z,54.94
2019-04-03T17:06:24.170Z,55.29
2019-04-03T17:08:54.456Z,55.46
2019-04-03T17:11:26.295Z,56.07
2019-04-03T17:13:58.130Z,55.88
2019-04-03T17:16:30.891Z,56.13
2019-04-03T17:19:01.076Z,56.42
2019-04-03T17:21:36.976Z,56.77
2019-04-03T17:24:03.826Z,57.39
2019-04-03T17:26:34.522Z,57.25
2019-04-03T17:29:07.144Z,57.16
2019-04-03T17:31:37.762Z,57.40
2019-04-03T17:34:08.557Z,57.18
2019-04-03T17:36:40.584Z,57.46
2019-04-03T17:39:11.177Z,57.96
2019-04-03T17:41:46.272Z,57.93
2019-04-03T17:44:17.096Z,57.59
2019-04-03T17:46:49.440Z,57.08
2019-04-03T17:49:19.854Z,57.45
2019-04-03T17:51:50.064Z,57.22
2019-04-03T17:54:20.269Z,58.48
2019-04-03T17:56:50.472Z,58.59
2019-04-03T17:59:22.878Z,58.43
2019-04-03T18:01:53.925Z,58.64
2019-04-03T18:04:24.201Z,58.71
2019-04-03T18:06:57.276Z,59.64
2019-04-03T18:09:26.991Z,59.26
2019-04-03T18:11:58.015Z,60.17
2019-04-03T18:14:30.812Z,59.69
2019-04-03T18:17:01.896Z,59.45
2019-04-03T18:19:37.634Z,59.58
2019-04-03T18:22:10.212Z,60.11
2019-04-03T18:24:41.756Z,60.44
2019-04-03T18:27:12.001Z,60.37
2019-04-03T18:29:44.656Z,60.47
2019-04-03T18:32:15.445Z,60.31
2019-04-03T18:34:50.762Z,60.59
2019-04-03T18:37:20.619Z,60.87
2019-04-03T18:39:51.682Z,61.36
2019-04-03T18:42:22.030Z,61.19
2019-04-03T18:44:52.219Z,61.22
2019-04-03T18:47:22.447Z,61.37
2019-04-03T18:49:55.345Z,61.42
2019-04-03T18:52:24.673Z,61.75
2019-04-03T18:54:54.928Z,62.09
2019-04-03T18:57:25.128Z,61.64
2019-04-03T18:59:56.456Z,61.73
2019-04-03T19:02:27.208Z,62.09
2019-04-03T19:05:02.258Z,62.02
2019-04-03T19:07:31.815Z,62.43
2019-04-03T19:10:07.459Z,62.19
2019-04-03T19:12:36.162Z,62.78
2019-04-03T19:15:08.131Z,62.99
2019-04-03T19:17:39.789Z,62.57
2019-04-03T19:20:11.533Z,62.69
2019-04-03T19:22:42.329Z,62.84
2019-04-03T19:25:14.424Z,62.92
2019-04-03T19:27:46.001Z,62.87
2019-04-03T19:30:16.935Z,62.72
2019-04-03T19:32:47.718Z,61.93
2019-04-03T19:35:22.248Z,62.51
2019-04-03T19:37:54.071Z,62.86
2019-04-03T19:40:24.690Z,62.84
2019-04-03T19:42:55.374Z,62.71
2019-04-03T19:45:30.540Z,63.31
2019-04-03T19:48:02.506Z,62.99
2019-04-03T19:50:36.911Z,62.67
2019-04-03T19:53:13.516Z,62.73
2019-04-03T19:55:46.660Z,62.85
2019-04-03T19:58:19.710Z,62.88
2019-04-03T20:00:50.307Z,62.95
2019-04-03T20:03:20.729Z,63.08
2019-04-03T20:05:51.141Z,62.92
2019-04-03T20:08:22.992Z,62.84
2019-04-03T20:10:53.973Z,62.47
2019-04-03T20:13:24.758Z,62.70
2019-04-03T20:15:54.965Z,63.63
2019-04-03T20:18:25.931Z,63.46
2019-04-03T20:20:56.878Z,63.21
2019-04-03T20:23:29.972Z,63.20
2019-04-03T20:25:59.056Z,63.10
2019-04-03T20:28:29.361Z,63.28
2019-04-03T20:30:59.741Z,63.05
2019-04-03T20:33:29.944Z,62.94
2019-04-03T20:36:01.217Z,62.91
2019-04-03T20:38:33.268Z,63.00
2019-04-03T20:41:03.883Z,62.96
2019-04-03T20:43:34.133Z,63.14
2019-04-03T20:46:04.324Z,63.05
2019-04-03T20:48:35.691Z,62.55
2019-04-03T20:51:08.798Z,63.05
2019-04-03T20:53:37.858Z,62.93
2019-04-03T20:56:08.018Z,62.79
2019-04-03T20:58:40.733Z,62.75
2019-04-03T21:01:10.275Z,62.66
2019-04-03T21:03:41.836Z,62.68
2019-04-03T21:06:12.363Z,62.64
2019-04-03T21:08:42.558Z,62.55
2019-04-03T21:11:12.729Z,62.27
2019-04-03T21:13:43.019Z,61.80
2019-04-03T21:16:16.923Z,62.28
2019-04-03T21:18:47.943Z,62.37
2019-04-03T21:21:18.127Z,62.31
2019-04-03T21:23:48.370Z,62.09
2019-04-03T21:26:18.569Z,61.91
2019-04-03T21:28:49.415Z,61.79
2019-04-03T21:31:19.648Z,61.83
2019-04-03T21:33:49.846Z,61.89
2019-04-03T21:36:20.171Z,61.90
2019-04-03T21:38:50.456Z,62.18
2019-04-03T21:41:21.297Z,62.14
2019-04-03T21:43:55.557Z,62.33
2019-04-03T21:46:25.798Z,62.34
2019-04-03T21:48:56.116Z,62.11
2019-04-03T21:51:26.312Z,61.78
2019-04-03T21:53:56.658Z,61.86
2019-04-03T21:56:26.867Z,61.71
2019-04-03T21:58:57.078Z,61.48
2019-04-03T22:01:27.854Z,61.51
2019-04-03T22:03:58.041Z,61.38
2019-04-03T22:06:28.220Z,60.93
2019-04-03T22:09:00.377Z,60.84
2019-04-03T22:11:30.409Z,60.83
2019-04-03T22:14:00.657Z,60.74
2019-04-03T22:16:31.156Z,60.33
2019-04-03T22:19:01.406Z,60.44
2019-04-03T22:21:32.510Z,60.48
2019-04-03T22:24:06.567Z,60.12
2019-04-03T22:26:36.143Z,59.77
2019-04-03T22:29:06.480Z,59.76
2019-04-03T22:31:36.684Z,59.70
2019-04-03T22:34:06.956Z,59.52
2019-04-03T22:36:39.900Z,59.44
2019-04-03T22:39:10.182Z,59.36
2019-04-03T22:41:40.931Z,59.28
2019-04-03T22:44:12.502Z,59.14
2019-04-03T22:46:42.692Z,59.23
2019-04-03T22:49:12.885Z,58.86
2019-04-03T22:51:43.866Z,58.80
2019-04-03T22:54:14.070Z,58.79
2019-04-03T22:56:44.236Z,58.47
2019-04-03T22:59:16.077Z,58.50
2019-04-03T23:01:48.083Z,58.40
2019-04-03T23:04:18.329Z,58.30
2019-04-03T23:06:49.695Z,58.43
2019-04-03T23:09:24.677Z,58.35
2019-04-03T23:11:54.031Z,58.29
2019-04-03T23:14:24.230Z,58.37
2019-04-03T23:16:54.426Z,58.46
2019-04-03T23:19:24.620Z,58.32
2019-04-03T23:21:55.413Z,58.31
2019-04-03T23:24:28.662Z,58.08
2019-04-03T23:26:57.460Z,58.00
2019-04-03T23:29:27.724Z,57.86
2019-04-03T23:31:57.904Z,57.74
2019-04-03T23:34:28.094Z,57.86
2019-04-03T23:36:58.351Z,57.51
2019-04-03T23:39:28.552Z,57.56
2019-04-03T23:41:58.768Z,57.64
2019-04-03T23:44:28.981Z,57.84
2019-04-03T23:46:59.172Z,58.08
2019-04-03T23:49:29.583Z,57.93
2019-04-03T23:52:01.608Z,58.23
2019-04-03T23:54:33.564Z,58.10
2019-04-03T23:57:03.735Z,58.07
2019-04-03T23:59:33.934Z,58.05
